sensor_id;sensor_type;location;lat;lon;timestamp;pressure;altitude;pressure_sealevel;temperature;humidity
4705;BME280;2366;51.332;6.610;2022-07-29T00:02:19;101393.78;;;22.97;39.46
4705;BME280;2366;51.332;6.610;2022-07-29T00:04:45;101378.72;;;22.94;39.15
4705;BME280;2366;51.332;6.610;2022-07-29T00:07:10;101378.72;;;22.94;39.40
4705;BME280;2366;51.332;6.610;2022-07-29T00:09:36;101378.72;;;22.94;39.20
4705;BME280;2366;51.332;6.610;2022-07-29T00:12:01;101376.00;;;22.94;39.25
4705;BME280;2366;51.332;6.610;2022-07-29T00:14:28;101371.44;;;22.95;39.10
4705;BME280;2366;51.332;6.610;2022-07-29T00:16:53;101365.34;;;22.93;39.61
4705;BME280;2366;51.332;6.610;2022-07-29T00:19:19;101368.84;;;22.85;39.72
4705;BME280;2366;51.332;6.610;2022-07-29T00:21:44;101361.75;;;22.84;39.63
4705;BME280;2366;51.332;6.610;2022-07-29T00:24:09;101356.34;;;22.84;39.65
4705;BME280;2366;51.332;6.610;2022-07-29T00:26:35;101360.69;;;22.77;40.00
4705;BME280;2366;51.332;6.610;2022-07-29T00:29:02;101341.09;;;22.75;40.01
4705;BME280;2366;51.332;6.610;2022-07-29T00:31:28;101340.56;;;22.71;40.08
4705;BME280;2366;51.332;6.610;2022-07-29T00:33:54;101335.00;;;22.73;40.15
4705;BME280;2366;51.332;6.610;2022-07-29T00:36:19;101332.97;;;22.75;40.01
4705;BME280;2366;51.332;6.610;2022-07-29T00:38:47;101323.09;;;22.66;40.13
4705;BME280;2366;51.332;6.610;2022-07-29T00:41:13;101321.72;;;22.62;40.41
4705;BME280;2366;51.332;6.610;2022-07-29T00:43:38;101312.28;;;22.58;40.21
4705;BME280;2366;51.332;6.610;2022-07-29T00:46:03;101315.97;;;22.56;39.98
4705;BME280;2366;51.332;6.610;2022-07-29T00:48:29;101308.31;;;22.52;40.36
4705;BME280;2366;51.332;6.610;2022-07-29T00:50:56;101311.88;;;22.52;40.24
4705;BME280;2366;51.332;6.610;2022-07-29T00:53:23;101314.56;;;22.52;40.40
4705;BME280;2366;51.332;6.610;2022-07-29T00:55:49;101316.38;;;22.44;40.49
4705;BME280;2366;51.332;6.610;2022-07-29T00:58:15;101309.50;;;22.49;40.62
4705;BME280;2366;51.332;6.610;2022-07-29T01:00:40;101316.59;;;22.50;40.74
4705;BME280;2366;51.332;6.610;2022-07-29T01:03:07;101307.50;;;22.51;40.64
4705;BME280;2366;51.332;6.610;2022-07-29T01:05:32;101311.28;;;22.41;40.92
4705;BME280;2366;51.332;6.610;2022-07-29T01:07:59;101310.81;;;22.45;41.06
4705;BME280;2366;51.332;6.610;2022-07-29T01:10:25;101308.13;;;22.45;40.80
4705;BME280;2366;51.332;6.610;2022-07-29T01:12:52;101307.72;;;22.40;40.79
4705;BME280;2366;51.332;6.610;2022-07-29T01:15:19;101303.66;;;22.36;40.81
4705;BME280;2366;51.332;6.610;2022-07-29T01:25:54;101303.25;;;22.31;40.75
4705;BME280;2366;51.332;6.610;2022-07-29T01:31:45;101296.34;;;22.28;40.65
4705;BME280;2366;51.332;6.610;2022-07-29T01:34:21;101297.19;;;22.29;40.60
4705;BME280;2366;51.332;6.610;2022-07-29T01:39:47;101289.69;;;22.23;40.90
4705;BME280;2366;51.332;6.610;2022-07-29T01:42:22;101293.97;;;22.25;40.97
4705;BME280;2366;51.332;6.610;2022-07-29T01:44:57;101304.56;;;22.27;40.74
4705;BME280;2366;51.332;6.610;2022-07-29T01:47:28;101300.75;;;22.29;40.82
4705;BME280;2366;51.332;6.610;2022-07-29T01:49:58;101294.00;;;22.33;40.76
4705;BME280;2366;51.332;6.610;2022-07-29T01:52:34;101292.66;;;22.29;40.61
4705;BME280;2366;51.332;6.610;2022-07-29T01:55:09;101283.53;;;22.30;40.82
4705;BME280;2366;51.332;6.610;2022-07-29T01:57:38;101284.38;;;22.31;40.99
4705;BME280;2366;51.332;6.610;2022-07-29T02:00:06;101291.16;;;22.35;40.79
4705;BME280;2366;51.332;6.610;2022-07-29T02:02:33;101296.88;;;22.32;41.17
4705;BME280;2366;51.332;6.610;2022-07-29T02:05:01;101311.91;;;22.34;41.34
4705;BME280;2366;51.332;6.610;2022-07-29T02:07:29;101320.16;;;22.33;41.92
4705;BME280;2366;51.332;6.610;2022-07-29T02:09:57;101345.63;;;22.30;42.10
4705;BME280;2366;51.332;6.610;2022-07-29T02:12:24;101351.88;;;22.31;42.40
4705;BME280;2366;51.332;6.610;2022-07-29T02:14:52;101351.53;;;22.16;42.42
4705;BME280;2366;51.332;6.610;2022-07-29T02:17:25;101340.00;;;22.06;42.57
4705;BME280;2366;51.332;6.610;2022-07-29T02:19:57;101339.75;;;21.99;42.77
4705;BME280;2366;51.332;6.610;2022-07-29T02:22:23;101350.84;;;21.96;42.65
4705;BME280;2366;51.332;6.610;2022-07-29T02:24:50;101356.56;;;21.93;42.98
4705;BME280;2366;51.332;6.610;2022-07-29T02:27:17;101353.63;;;21.86;43.31
4705;BME280;2366;51.332;6.610;2022-07-29T02:29:45;101348.09;;;21.60;43.45
4705;BME280;2366;51.332;6.610;2022-07-29T02:32:13;101337.28;;;21.32;43.61
4705;BME280;2366;51.332;6.610;2022-07-29T02:34:42;101333.78;;;21.22;44.03
4705;BME280;2366;51.332;6.610;2022-07-29T02:37:12;101343.34;;;21.07;43.87
4705;BME280;2366;51.332;6.610;2022-07-29T02:39:41;101345.13;;;20.88;44.90
4705;BME280;2366;51.332;6.610;2022-07-29T02:42:08;101336.59;;;20.83;45.10
4705;BME280;2366;51.332;6.610;2022-07-29T02:44:36;101331.25;;;20.74;45.59
4705;BME280;2366;51.332;6.610;2022-07-29T02:47:06;101334.09;;;20.72;45.14
4705;BME280;2366;51.332;6.610;2022-07-29T02:49:42;101321.91;;;20.68;45.48
4705;BME280;2366;51.332;6.610;2022-07-29T02:57:40;101335.25;;;20.60;46.67
4705;BME280;2366;51.332;6.610;2022-07-29T03:00:07;101341.19;;;20.63;46.69
4705;BME280;2366;51.332;6.610;2022-07-29T03:02:36;101340.06;;;20.66;46.77
4705;BME280;2366;51.332;6.610;2022-07-29T03:05:04;101338.78;;;20.41;47.51
4705;BME280;2366;51.332;6.610;2022-07-29T03:07:32;101340.75;;;20.48;47.42
4705;BME280;2366;51.332;6.610;2022-07-29T03:09:58;101352.81;;;20.44;47.51
4705;BME280;2366;51.332;6.610;2022-07-29T03:12:25;101346.56;;;20.34;47.88
4705;BME280;2366;51.332;6.610;2022-07-29T03:14:51;101353.53;;;20.27;48.27
4705;BME280;2366;51.332;6.610;2022-07-29T03:17:17;101362.72;;;20.34;48.65
4705;BME280;2366;51.332;6.610;2022-07-29T03:19:43;101372.38;;;20.46;47.97
4705;BME280;2366;51.332;6.610;2022-07-29T03:22:09;101378.59;;;20.57;47.90
4705;BME280;2366;51.332;6.610;2022-07-29T03:24:36;101379.56;;;20.56;47.96
4705;BME280;2366;51.332;6.610;2022-07-29T03:27:03;101389.94;;;20.50;47.50
4705;BME280;2366;51.332;6.610;2022-07-29T03:29:29;101412.38;;;20.61;48.00
4705;BME280;2366;51.332;6.610;2022-07-29T03:31:54;101408.84;;;20.60;47.93
4705;BME280;2366;51.332;6.610;2022-07-29T03:34:20;101420.88;;;20.66;47.98
4705;BME280;2366;51.332;6.610;2022-07-29T03:36:45;101420.00;;;20.75;47.44
4705;BME280;2366;51.332;6.610;2022-07-29T03:39:15;101425.66;;;20.82;47.65
4705;BME280;2366;51.332;6.610;2022-07-29T03:41:42;101422.66;;;20.95;47.35
4705;BME280;2366;51.332;6.610;2022-07-29T03:44:08;101426.94;;;20.97;47.22
4705;BME280;2366;51.332;6.610;2022-07-29T03:46:35;101427.47;;;21.01;46.95
4705;BME280;2366;51.332;6.610;2022-07-29T03:49:03;101432.88;;;21.01;46.79
4705;BME280;2366;51.332;6.610;2022-07-29T03:51:29;101419.16;;;20.84;47.67
4705;BME280;2366;51.332;6.610;2022-07-29T03:53:55;101410.63;;;20.50;49.97
4705;BME280;2366;51.332;6.610;2022-07-29T03:56:22;101413.44;;;19.69;53.29
4705;BME280;2366;51.332;6.610;2022-07-29T03:58:52;101401.13;;;18.63;61.45
4705;BME280;2366;51.332;6.610;2022-07-29T04:01:18;101383.59;;;17.49;81.34
4705;BME280;2366;51.332;6.610;2022-07-29T04:03:45;101385.78;;;16.99;90.22
4705;BME280;2366;51.332;6.610;2022-07-29T04:06:11;101385.13;;;16.84;93.76
4705;BME280;2366;51.332;6.610;2022-07-29T04:08:37;101376.41;;;16.69;96.02
4705;BME280;2366;51.332;6.610;2022-07-29T04:11:04;101351.09;;;16.62;97.09
4705;BME280;2366;51.332;6.610;2022-07-29T04:13:30;101337.22;;;16.57;98.86
4705;BME280;2366;51.332;6.610;2022-07-29T04:15:56;101312.94;;;16.36;97.87
4705;BME280;2366;51.332;6.610;2022-07-29T04:18:22;101294.31;;;16.23;98.73
4705;BME280;2366;51.332;6.610;2022-07-29T04:20:48;101293.69;;;16.31;100.00
4705;BME280;2366;51.332;6.610;2022-07-29T04:23:13;101283.59;;;16.23;99.72
4705;BME280;2366;51.332;6.610;2022-07-29T04:25:39;101292.59;;;16.22;99.38
4705;BME280;2366;51.332;6.610;2022-07-29T04:28:06;101314.88;;;16.34;100.00
4705;BME280;2366;51.332;6.610;2022-07-29T04:30:33;101322.38;;;16.64;100.00
4705;BME280;2366;51.332;6.610;2022-07-29T04:33:03;101338.75;;;16.83;100.00
4705;BME280;2366;51.332;6.610;2022-07-29T04:35:30;101335.78;;;16.75;100.00
4705;BME280;2366;51.332;6.610;2022-07-29T04:37:55;101342.59;;;16.68;100.00
4705;BME280;2366;51.332;6.610;2022-07-29T04:40:21;101345.63;;;16.63;100.00
4705;BME280;2366;51.332;6.610;2022-07-29T04:42:46;101348.22;;;16.76;100.00
4705;BME280;2366;51.332;6.610;2022-07-29T04:45:12;101365.06;;;17.01;100.00
4705;BME280;2366;51.332;6.610;2022-07-29T04:47:37;101386.50;;;17.12;100.00
4705;BME280;2366;51.332;6.610;2022-07-29T04:50:03;101395.66;;;17.32;100.00
4705;BME280;2366;51.332;6.610;2022-07-29T04:52:28;101378.72;;;17.32;98.61
4705;BME280;2366;51.332;6.610;2022-07-29T04:54:54;101376.31;;;17.29;100.00
4705;BME280;2366;51.332;6.610;2022-07-29T04:57:19;101364.38;;;17.44;100.00
4705;BME280;2366;51.332;6.610;2022-07-29T04:59:44;101362.78;;;17.41;100.00
4705;BME280;2366;51.332;6.610;2022-07-29T05:02:10;101345.38;;;17.24;100.00
4705;BME280;2366;51.332;6.610;2022-07-29T05:04:35;101355.47;;;17.10;100.00
4705;BME280;2366;51.332;6.610;2022-07-29T05:07:00;101352.91;;;17.08;100.00
4705;BME280;2366;51.332;6.610;2022-07-29T05:09:26;101352.41;;;17.03;100.00
4705;BME280;2366;51.332;6.610;2022-07-29T05:11:51;101359.34;;;16.94;100.00
4705;BME280;2366;51.332;6.610;2022-07-29T05:14:17;101365.56;;;17.06;100.00
4705;BME280;2366;51.332;6.610;2022-07-29T05:16:42;101368.97;;;17.08;100.00
4705;BME280;2366;51.332;6.610;2022-07-29T05:19:08;101362.16;;;17.04;100.00
4705;BME280;2366;51.332;6.610;2022-07-29T05:21:33;101368.50;;;17.14;100.00
4705;BME280;2366;51.332;6.610;2022-07-29T05:23:59;101369.69;;;17.21;100.00
4705;BME280;2366;51.332;6.610;2022-07-29T05:26:24;101367.63;;;17.36;100.00
4705;BME280;2366;51.332;6.610;2022-07-29T05:28:49;101367.28;;;17.52;100.00
4705;BME280;2366;51.332;6.610;2022-07-29T05:31:15;101363.69;;;17.63;100.00
4705;BME280;2366;51.332;6.610;2022-07-29T05:33:41;101358.75;;;17.47;100.00
4705;BME280;2366;51.332;6.610;2022-07-29T05:36:07;101355.47;;;17.32;100.00
4705;BME280;2366;51.332;6.610;2022-07-29T05:38:33;101348.28;;;17.33;100.00
4705;BME280;2366;51.332;6.610;2022-07-29T05:40:59;101349.25;;;17.32;100.00
4705;BME280;2366;51.332;6.610;2022-07-29T05:43:26;101361.19;;;17.50;100.00
4705;BME280;2366;51.332;6.610;2022-07-29T05:45:51;101358.72;;;17.58;100.00
4705;BME280;2366;51.332;6.610;2022-07-29T05:48:16;101366.88;;;17.68;100.00
4705;BME280;2366;51.332;6.610;2022-07-29T05:50:42;101367.69;;;17.80;100.00
4705;BME280;2366;51.332;6.610;2022-07-29T05:53:07;101361.16;;;17.84;100.00
4705;BME280;2366;51.332;6.610;2022-07-29T05:55:32;101367.25;;;17.86;100.00
4705;BME280;2366;51.332;6.610;2022-07-29T05:57:58;101352.97;;;17.85;100.00
4705;BME280;2366;51.332;6.610;2022-07-29T06:00:23;101356.47;;;17.97;100.00
4705;BME280;2366;51.332;6.610;2022-07-29T06:02:48;101351.34;;;18.05;100.00
4705;BME280;2366;51.332;6.610;2022-07-29T06:05:14;101361.09;;;18.06;100.00
4705;BME280;2366;51.332;6.610;2022-07-29T06:07:40;101355.41;;;18.21;100.00
4705;BME280;2366;51.332;6.610;2022-07-29T06:10:06;101357.00;;;18.23;100.00
4705;BME280;2366;51.332;6.610;2022-07-29T06:12:31;101358.31;;;18.29;100.00
4705;BME280;2366;51.332;6.610;2022-07-29T06:14:57;101371.22;;;18.35;100.00
4705;BME280;2366;51.332;6.610;2022-07-29T06:17:23;101363.72;;;18.50;100.00
4705;BME280;2366;51.332;6.610;2022-07-29T06:19:48;101369.56;;;18.76;100.00
4705;BME280;2366;51.332;6.610;2022-07-29T06:22:15;101370.53;;;18.75;99.53
4705;BME280;2366;51.332;6.610;2022-07-29T06:24:41;101374.03;;;18.87;100.00
4705;BME280;2366;51.332;6.610;2022-07-29T06:27:09;101388.03;;;18.91;100.00
4705;BME280;2366;51.332;6.610;2022-07-29T06:29:34;101393.16;;;18.94;100.00
4705;BME280;2366;51.332;6.610;2022-07-29T06:32:00;101399.50;;;18.93;100.00
4705;BME280;2366;51.332;6.610;2022-07-29T06:34:25;101411.44;;;18.79;99.36
4705;BME280;2366;51.332;6.610;2022-07-29T06:36:51;101419.00;;;18.74;99.92
4705;BME280;2366;51.332;6.610;2022-07-29T06:39:17;101426.19;;;18.73;100.00
4705;BME280;2366;51.332;6.610;2022-07-29T06:41:46;101428.03;;;18.73;100.00
4705;BME280;2366;51.332;6.610;2022-07-29T06:44:12;101445.28;;;18.70;100.00
4705;BME280;2366;51.332;6.610;2022-07-29T06:46:38;101452.59;;;18.68;100.00
4705;BME280;2366;51.332;6.610;2022-07-29T06:49:04;101457.84;;;18.70;100.00
4705;BME280;2366;51.332;6.610;2022-07-29T06:51:30;101461.09;;;18.73;100.00
4705;BME280;2366;51.332;6.610;2022-07-29T06:53:55;101445.16;;;18.72;100.00
4705;BME280;2366;51.332;6.610;2022-07-29T06:56:22;101446.97;;;18.71;100.00
4705;BME280;2366;51.332;6.610;2022-07-29T06:58:48;101443.44;;;18.71;100.00
4705;BME280;2366;51.332;6.610;2022-07-29T07:01:13;101453.78;;;18.75;100.00
4705;BME280;2366;51.332;6.610;2022-07-29T07:03:38;101454.09;;;18.61;100.00
4705;BME280;2366;51.332;6.610;2022-07-29T07:06:04;101460.66;;;18.68;100.00
4705;BME280;2366;51.332;6.610;2022-07-29T07:08:29;101456.72;;;18.72;100.00
4705;BME280;2366;51.332;6.610;2022-07-29T07:10:54;101461.34;;;18.81;100.00
4705;BME280;2366;51.332;6.610;2022-07-29T07:13:21;101462.56;;;18.77;100.00
4705;BME280;2366;51.332;6.610;2022-07-29T07:15:47;101463.78;;;18.73;100.00
4705;BME280;2366;51.332;6.610;2022-07-29T07:18:13;101467.94;;;18.77;100.00
4705;BME280;2366;51.332;6.610;2022-07-29T07:20:39;101462.34;;;18.80;100.00
4705;BME280;2366;51.332;6.610;2022-07-29T07:23:04;101464.88;;;18.82;100.00
4705;BME280;2366;51.332;6.610;2022-07-29T07:25:30;101462.06;;;18.83;100.00
4705;BME280;2366;51.332;6.610;2022-07-29T07:27:55;101463.53;;;18.87;100.00
4705;BME280;2366;51.332;6.610;2022-07-29T07:30:21;101458.78;;;18.80;100.00
4705;BME280;2366;51.332;6.610;2022-07-29T07:32:46;101449.53;;;18.73;100.00
4705;BME280;2366;51.332;6.610;2022-07-29T07:35:12;101449.47;;;18.52;100.00
4705;BME280;2366;51.332;6.610;2022-07-29T07:37:38;101448.41;;;18.43;100.00
4705;BME280;2366;51.332;6.610;2022-07-29T07:40:06;101450.25;;;18.42;100.00
4705;BME280;2366;51.332;6.610;2022-07-29T07:42:31;101439.44;;;18.21;100.00
4705;BME280;2366;51.332;6.610;2022-07-29T07:44:57;101445.69;;;18.22;100.00
4705;BME280;2366;51.332;6.610;2022-07-29T07:47:22;101436.03;;;18.31;100.00
4705;BME280;2366;51.332;6.610;2022-07-29T07:49:50;101430.44;;;18.22;100.00
4705;BME280;2366;51.332;6.610;2022-07-29T07:52:16;101431.28;;;18.23;100.00
4705;BME280;2366;51.332;6.610;2022-07-29T07:54:42;101425.91;;;18.23;100.00
4705;BME280;2366;51.332;6.610;2022-07-29T07:57:10;101435.13;;;18.41;100.00
4705;BME280;2366;51.332;6.610;2022-07-29T07:59:35;101439.41;;;18.44;100.00
4705;BME280;2366;51.332;6.610;2022-07-29T08:02:01;101444.59;;;18.57;100.00
4705;BME280;2366;51.332;6.610;2022-07-29T08:04:26;101440.69;;;18.61;100.00
4705;BME280;2366;51.332;6.610;2022-07-29T08:06:52;101439.16;;;18.68;100.00
4705;BME280;2366;51.332;6.610;2022-07-29T08:09:20;101441.59;;;18.71;100.00
4705;BME280;2366;51.332;6.610;2022-07-29T08:11:45;101440.19;;;18.56;100.00
4705;BME280;2366;51.332;6.610;2022-07-29T08:14:10;101437.00;;;18.62;100.00
4705;BME280;2366;51.332;6.610;2022-07-29T08:16:36;101443.94;;;18.64;100.00
4705;BME280;2366;51.332;6.610;2022-07-29T08:19:01;101439.38;;;18.76;100.00
4705;BME280;2366;51.332;6.610;2022-07-29T08:21:26;101437.78;;;18.85;100.00
4705;BME280;2366;51.332;6.610;2022-07-29T08:23:52;101438.69;;;18.95;100.00
4705;BME280;2366;51.332;6.610;2022-07-29T08:26:19;101438.47;;;19.08;100.00
4705;BME280;2366;51.332;6.610;2022-07-29T08:28:46;101446.34;;;19.21;100.00
4705;BME280;2366;51.332;6.610;2022-07-29T08:31:14;101436.81;;;19.38;100.00
4705;BME280;2366;51.332;6.610;2022-07-29T08:33:40;101443.53;;;19.53;100.00
4705;BME280;2366;51.332;6.610;2022-07-29T08:36:05;101444.88;;;19.68;100.00
4705;BME280;2366;51.332;6.610;2022-07-29T08:38:31;101451.47;;;19.76;100.00
4705;BME280;2366;51.332;6.610;2022-07-29T08:40:58;101453.88;;;19.79;100.00
4705;BME280;2366;51.332;6.610;2022-07-29T08:43:24;101455.41;;;19.72;100.00
4705;BME280;2366;51.332;6.610;2022-07-29T08:45:50;101461.09;;;19.78;100.00
4705;BME280;2366;51.332;6.610;2022-07-29T08:48:18;101452.78;;;19.91;100.00
4705;BME280;2366;51.332;6.610;2022-07-29T08:50:45;101465.84;;;20.05;100.00
4705;BME280;2366;51.332;6.610;2022-07-29T08:53:12;101466.00;;;20.14;100.00
4705;BME280;2366;51.332;6.610;2022-07-29T08:55:48;101471.09;;;20.17;100.00
4705;BME280;2366;51.332;6.610;2022-07-29T08:58:18;101467.84;;;20.13;100.00
4705;BME280;2366;51.332;6.610;2022-07-29T09:00:53;101462.91;;;20.28;100.00
4705;BME280;2366;51.332;6.610;2022-07-29T09:03:20;101467.47;;;20.37;100.00
4705;BME280;2366;51.332;6.610;2022-07-29T09:05:48;101470.41;;;20.34;100.00
4705;BME280;2366;51.332;6.610;2022-07-29T09:08:15;101463.47;;;20.22;100.00
4705;BME280;2366;51.332;6.610;2022-07-29T09:10:41;101466.06;;;20.52;100.00
4705;BME280;2366;51.332;6.610;2022-07-29T09:13:06;101462.22;;;20.55;100.00
4705;BME280;2366;51.332;6.610;2022-07-29T09:15:32;101464.25;;;20.63;100.00
4705;BME280;2366;51.332;6.610;2022-07-29T09:17:58;101463.38;;;20.52;100.00
4705;BME280;2366;51.332;6.610;2022-07-29T09:20:25;101461.69;;;20.81;100.00
4705;BME280;2366;51.332;6.610;2022-07-29T09:22:52;101453.75;;;20.60;100.00
4705;BME280;2366;51.332;6.610;2022-07-29T09:25:34;101459.06;;;20.21;99.10
4705;BME280;2366;51.332;6.610;2022-07-29T09:28:14;101461.50;;;20.24;99.20
4705;BME280;2366;51.332;6.610;2022-07-29T09:30:59;101462.50;;;20.42;100.00
4705;BME280;2366;51.332;6.610;2022-07-29T09:33:32;101453.28;;;20.35;100.00
4705;BME280;2366;51.332;6.610;2022-07-29T09:38:25;101441.19;;;20.00;100.00
4705;BME280;2366;51.332;6.610;2022-07-29T09:40:58;101443.72;;;19.92;100.00
4705;BME280;2366;51.332;6.610;2022-07-29T09:43:24;101455.38;;;20.12;100.00
4705;BME280;2366;51.332;6.610;2022-07-29T09:45:50;101447.44;;;20.10;100.00
4705;BME280;2366;51.332;6.610;2022-07-29T09:48:18;101454.94;;;20.07;100.00
4705;BME280;2366;51.332;6.610;2022-07-29T09:50:45;101454.56;;;20.21;100.00
4705;BME280;2366;51.332;6.610;2022-07-29T09:53:12;101454.69;;;20.29;100.00
4705;BME280;2366;51.332;6.610;2022-07-29T09:55:54;101457.44;;;20.68;100.00
4705;BME280;2366;51.332;6.610;2022-07-29T09:58:21;101461.88;;;21.46;100.00
4705;BME280;2366;51.332;6.610;2022-07-29T10:00:49;101464.19;;;21.96;100.00
4705;BME280;2366;51.332;6.610;2022-07-29T10:03:16;101473.81;;;22.54;100.00
4705;BME280;2366;51.332;6.610;2022-07-29T10:05:42;101467.72;;;22.52;93.34
4705;BME280;2366;51.332;6.610;2022-07-29T10:08:09;101468.94;;;22.40;99.54
4705;BME280;2366;51.332;6.610;2022-07-29T10:10:37;101471.00;;;22.00;88.64
4705;BME280;2366;51.332;6.610;2022-07-29T10:15:30;101481.06;;;22.53;90.75
4705;BME280;2366;51.332;6.610;2022-07-29T10:17:57;101483.31;;;22.76;89.23
4705;BME280;2366;51.332;6.610;2022-07-29T10:20:24;101484.16;;;23.38;95.24
4705;BME280;2366;51.332;6.610;2022-07-29T10:22:50;101485.81;;;24.00;98.09
4705;BME280;2366;51.332;6.610;2022-07-29T10:25:16;101486.19;;;24.64;98.79
4705;BME280;2366;51.332;6.610;2022-07-29T10:27:43;101484.75;;;24.35;90.31
4705;BME280;2366;51.332;6.610;2022-07-29T10:30:10;101485.34;;;24.88;97.82
4705;BME280;2366;51.332;6.610;2022-07-29T10:32:54;101479.75;;;25.23;95.62
4705;BME280;2366;51.332;6.610;2022-07-29T10:44:29;101473.19;;;22.60;85.64
4705;BME280;2366;51.332;6.610;2022-07-29T10:46:55;101480.19;;;23.59;94.12
4705;BME280;2366;51.332;6.610;2022-07-29T10:49:24;101487.25;;;24.29;98.01
4705;BME280;2366;51.332;6.610;2022-07-29T10:51:58;101484.81;;;24.76;97.31
4705;BME280;2366;51.332;6.610;2022-07-29T10:57:19;101488.72;;;24.57;92.88
4705;BME280;2366;51.332;6.610;2022-07-29T11:05:03;101489.56;;;24.58;76.49
4705;BME280;2366;51.332;6.610;2022-07-29T11:07:29;101487.72;;;24.91;68.87
4705;BME280;2366;51.332;6.610;2022-07-29T11:15:06;101485.94;;;26.12;52.51
4705;BME280;2366;51.332;6.610;2022-07-29T11:23:03;101484.81;;;25.98;48.51
4705;BME280;2366;51.332;6.610;2022-07-29T11:25:46;101485.03;;;26.19;49.34
4705;BME280;2366;51.332;6.610;2022-07-29T11:28:32;101478.31;;;26.38;48.14
4705;BME280;2366;51.332;6.610;2022-07-29T11:30:59;101475.09;;;26.35;47.19
4705;BME280;2366;51.332;6.610;2022-07-29T11:33:32;101476.53;;;26.46;46.69
4705;BME280;2366;51.332;6.610;2022-07-29T11:38:34;101484.13;;;26.58;48.46
4705;BME280;2366;51.332;6.610;2022-07-29T11:41:27;101489.97;;;26.93;47.71
4705;BME280;2366;51.332;6.610;2022-07-29T11:43:59;101476.31;;;27.01;46.59
4705;BME280;2366;51.332;6.610;2022-07-29T11:46:47;101482.69;;;27.09;46.39
4705;BME280;2366;51.332;6.610;2022-07-29T11:49:19;101490.41;;;26.82;44.64
4705;BME280;2366;51.332;6.610;2022-07-29T11:51:51;101488.66;;;26.12;44.96
4705;BME280;2366;51.332;6.610;2022-07-29T11:54:23;101492.34;;;26.19;46.43
4705;BME280;2366;51.332;6.610;2022-07-29T11:56:49;101485.31;;;26.33;46.76
4705;BME280;2366;51.332;6.610;2022-07-29T11:59:15;101480.47;;;26.43;46.10
4705;BME280;2366;51.332;6.610;2022-07-29T12:01:55;101477.97;;;26.10;46.97
4705;BME280;2366;51.332;6.610;2022-07-29T12:04:20;101477.22;;;26.25;46.27
4705;BME280;2366;51.332;6.610;2022-07-29T12:06:52;101483.53;;;26.48;45.34
4705;BME280;2366;51.332;6.610;2022-07-29T12:09:18;101484.19;;;26.19;43.85
4705;BME280;2366;51.332;6.610;2022-07-29T12:11:46;101489.13;;;26.15;44.32
4705;BME280;2366;51.332;6.610;2022-07-29T12:14:31;101481.50;;;26.11;42.30
4705;BME280;2366;51.332;6.610;2022-07-29T12:16:58;101478.09;;;26.17;44.36
4705;BME280;2366;51.332;6.610;2022-07-29T12:19:23;101485.47;;;26.62;44.91
4705;BME280;2366;51.332;6.610;2022-07-29T12:21:51;101483.25;;;26.89;44.24
4705;BME280;2366;51.332;6.610;2022-07-29T12:24:17;101489.69;;;26.88;44.63
4705;BME280;2366;51.332;6.610;2022-07-29T12:26:50;101488.41;;;26.76;44.60
4705;BME280;2366;51.332;6.610;2022-07-29T12:29:16;101487.28;;;26.70;43.50
4705;BME280;2366;51.332;6.610;2022-07-29T12:31:43;101491.06;;;26.38;44.31
4705;BME280;2366;51.332;6.610;2022-07-29T12:34:10;101485.81;;;26.05;43.74
4705;BME280;2366;51.332;6.610;2022-07-29T12:36:36;101487.47;;;26.06;43.59
4705;BME280;2366;51.332;6.610;2022-07-29T12:39:02;101489.47;;;26.20;45.19
4705;BME280;2366;51.332;6.610;2022-07-29T12:41:29;101490.09;;;26.54;45.39
4705;BME280;2366;51.332;6.610;2022-07-29T12:43:55;101483.97;;;26.29;44.29
4705;BME280;2366;51.332;6.610;2022-07-29T12:46:21;101483.91;;;26.37;45.76
4705;BME280;2366;51.332;6.610;2022-07-29T12:48:51;101484.09;;;26.67;45.30
4705;BME280;2366;51.332;6.610;2022-07-29T12:51:31;101479.50;;;27.05;45.05
4705;BME280;2366;51.332;6.610;2022-07-29T12:54:06;101478.88;;;27.18;43.00
4705;BME280;2366;51.332;6.610;2022-07-29T12:56:32;101475.28;;;27.02;44.88
4705;BME280;2366;51.332;6.610;2022-07-29T12:58:57;101478.00;;;27.02;45.80
4705;BME280;2366;51.332;6.610;2022-07-29T13:01:23;101471.25;;;26.75;44.90
4705;BME280;2366;51.332;6.610;2022-07-29T13:03:55;101476.88;;;26.97;45.44
4705;BME280;2366;51.332;6.610;2022-07-29T13:06:40;101483.47;;;27.02;45.50
4705;BME280;2366;51.332;6.610;2022-07-29T13:11:41;101471.41;;;26.59;45.41
4705;BME280;2366;51.332;6.610;2022-07-29T13:14:10;101475.66;;;26.53;45.09
4705;BME280;2366;51.332;6.610;2022-07-29T13:16:50;101482.38;;;26.11;44.19
4705;BME280;2366;51.332;6.610;2022-07-29T13:19:41;101480.63;;;25.79;44.88
4705;BME280;2366;51.332;6.610;2022-07-29T13:22:12;101480.56;;;25.95;44.74
4705;BME280;2366;51.332;6.610;2022-07-29T13:24:55;101477.72;;;25.89;44.94
4705;BME280;2366;51.332;6.610;2022-07-29T13:27:26;101476.34;;;25.93;43.60
4705;BME280;2366;51.332;6.610;2022-07-29T13:29:52;101481.13;;;26.22;43.85
4705;BME280;2366;51.332;6.610;2022-07-29T13:32:19;101476.16;;;26.26;43.29
4705;BME280;2366;51.332;6.610;2022-07-29T13:34:44;101468.34;;;26.31;43.48
4705;BME280;2366;51.332;6.610;2022-07-29T13:37:10;101474.03;;;26.44;42.92
4705;BME280;2366;51.332;6.610;2022-07-29T13:39:36;101471.41;;;26.28;42.82
4705;BME280;2366;51.332;6.610;2022-07-29T13:42:02;101464.50;;;26.48;41.42
4705;BME280;2366;51.332;6.610;2022-07-29T13:44:28;101468.38;;;26.46;39.71
4705;BME280;2366;51.332;6.610;2022-07-29T13:46:53;101465.50;;;26.47;39.95
4705;BME280;2366;51.332;6.610;2022-07-29T13:49:18;101467.94;;;26.42;41.71
4705;BME280;2366;51.332;6.610;2022-07-29T13:51:44;101466.53;;;26.46;39.20
4705;BME280;2366;51.332;6.610;2022-07-29T13:54:09;101464.22;;;26.35;39.53
4705;BME280;2366;51.332;6.610;2022-07-29T13:56:34;101472.56;;;26.33;40.01
4705;BME280;2366;51.332;6.610;2022-07-29T13:59:00;101464.28;;;25.95;39.17
4705;BME280;2366;51.332;6.610;2022-07-29T14:01:26;101465.53;;;25.76;38.80
4705;BME280;2366;51.332;6.610;2022-07-29T14:03:53;101467.53;;;25.91;39.55
4705;BME280;2366;51.332;6.610;2022-07-29T14:06:18;101457.63;;;25.98;39.16
4705;BME280;2366;51.332;6.610;2022-07-29T14:08:44;101460.06;;;25.93;39.54